Time;durP1;ratioP1;P1;durP2;ratioP2;P2;SDS_P1;SDS_P2;PMS_P1;PMS_P2;Temp;Humidity;BMP_temperature;BMP_pressure;BME280_temperature;BME280_humidity;BME280_pressure;Samples;Min_cycle;Max_cycle;Signal;HPM_P1;HPM_P2
2021/12/16 00:06:55;;;;;;;88.72;40.08;;;;;;;;;;6204023;28;20180;-62
2021/12/16 00:33:00;;;;;;;80.13;36.33;;;;;;;;;;6199719;28;20054;-63
2021/12/16 00:36:03;;;;;;;76.25;37.90;;;;;;;;;;6206505;28;20048;-62
2021/12/16 00:39:08;;;;;;;74.15;35.58;;;;;;;;;;6197484;28;20141;-62
2021/12/16 00:42:17;;;;;;;79.43;36.17;;;;;;;;;;6203135;28;20108;-62
2021/12/16 00:45:44;;;;;;;75.20;34.17;;;;;;;;;;6198435;28;20125;-63
2021/12/16 00:55:43;;;;;;;78.45;35.88;;;;;;;;;;6206426;28;20046;-62
2021/12/16 00:58:53;;;;;;;76.63;35.05;;;;;;;;;;6199771;28;20073;-62
2021/12/16 01:42:00;;;;;;;76.07;35.83;;;;;;;;;;6204300;28;20053;-62
2021/12/16 01:51:13;;;;;;;70.22;33.05;;;;;;;;;;6205343;28;20050;-62
2021/12/16 01:57:51;;;;;;;72.47;34.10;;;;;;;;;;6207538;28;20474;-62
2021/12/16 02:04:23;;;;;;;74.70;34.17;;;;;;;;;;6204089;28;20078;-62
2021/12/16 02:07:45;;;;;;;79.85;34.83;;;;;;;;;;6203535;28;20046;-63
2021/12/16 02:10:54;;;;;;;80.53;35.45;;;;;;;;;;6202962;28;20446;-61
2021/12/16 02:27:30;;;;;;;79.53;35.53;;;;;;;;;;6203363;28;20081;-62
2021/12/16 02:37:10;;;;;;;78.75;37.03;;;;;;;;;;6203836;28;20501;-62
2021/12/16 02:40:11;;;;;;;85.22;35.60;;;;;;;;;;6205131;28;20054;-62
2021/12/16 02:49:38;;;;;;;79.50;36.47;;;;;;;;;;6205680;28;20493;-63
2021/12/16 02:52:38;;;;;;;86.90;36.25;;;;;;;;;;6207718;28;20100;-61
2021/12/16 02:55:39;;;;;;;83.63;36.28;;;;;;;;;;6208163;28;20042;-62
2021/12/16 02:58:43;;;;;;;78.63;34.95;;;;;;;;;;6201174;28;20121;-62
2021/12/16 03:01:47;;;;;;;84.13;34.78;;;;;;;;;;6207332;28;20049;-62
2021/12/16 03:04:51;;;;;;;91.43;37.45;;;;;;;;;;6205213;28;20053;-61
2021/12/16 03:07:52;;;;;;;75.15;32.03;;;;;;;;;;6210828;28;20073;-62
2021/12/16 03:11:08;;;;;;;91.00;37.45;;;;;;;;;;6208755;28;20126;-61
2021/12/16 03:17:19;;;;;;;75.82;32.85;;;;;;;;;;6210923;28;20049;-62
2021/12/16 03:20:39;;;;;;;84.57;34.50;;;;;;;;;;6204816;28;20421;-62
2021/12/16 03:23:56;;;;;;;79.25;33.17;;;;;;;;;;6206186;28;21021;-62
2021/12/16 03:40:14;;;;;;;72.45;30.35;;;;;;;;;;6205853;28;20356;-62
2021/12/16 03:43:18;;;;;;;70.13;30.83;;;;;;;;;;6207795;28;20433;-61
2021/12/16 03:46:30;;;;;;;76.35;31.00;;;;;;;;;;6207718;28;20082;-63
2021/12/16 03:49:31;;;;;;;68.82;30.02;;;;;;;;;;6204043;28;20048;-63
2021/12/16 03:52:32;;;;;;;68.20;28.80;;;;;;;;;;6202367;28;20042;-62
2021/12/16 03:55:33;;;;;;;71.50;30.23;;;;;;;;;;6203658;28;21633;-62
2021/12/16 03:58:34;;;;;;;68.22;29.98;;;;;;;;;;6204566;28;20124;-62
2021/12/16 04:01:35;;;;;;;65.18;29.85;;;;;;;;;;6209132;28;20069;-62
2021/12/16 04:04:36;;;;;;;62.25;29.38;;;;;;;;;;6205279;28;20050;-62
2021/12/16 04:07:39;;;;;;;68.00;28.30;;;;;;;;;;6204742;28;20049;-62
2021/12/16 04:10:49;;;;;;;70.47;31.05;;;;;;;;;;6207215;28;20500;-61
2021/12/16 04:13:54;;;;;;;68.88;29.13;;;;;;;;;;6204787;28;20046;-61
2021/12/16 04:16:56;;;;;;;64.07;28.35;;;;;;;;;;6207116;28;20054;-62
2021/12/16 04:19:59;;;;;;;69.32;30.50;;;;;;;;;;6207707;28;20062;-62
2021/12/16 04:23:01;;;;;;;62.25;28.83;;;;;;;;;;6205530;28;20088;-62
2021/12/16 04:26:02;;;;;;;63.35;29.58;;;;;;;;;;6203743;28;20089;-62
2021/12/16 04:29:04;;;;;;;66.82;32.15;;;;;;;;;;6201609;28;20272;-62
2021/12/16 04:32:08;;;;;;;53.40;26.52;;;;;;;;;;6201938;28;20077;-61
2021/12/16 04:35:09;;;;;;;54.88;28.40;;;;;;;;;;6203583;28;20073;-61
2021/12/16 04:38:12;;;;;;;55.17;28.20;;;;;;;;;;6200749;28;20048;-62
2021/12/16 04:41:15;;;;;;;56.88;28.90;;;;;;;;;;6204121;28;20708;-62
2021/12/16 04:44:16;;;;;;;58.65;26.50;;;;;;;;;;6204246;28;20042;-62
2021/12/16 04:47:18;;;;;;;55.03;27.50;;;;;;;;;;6206302;28;20542;-62
2021/12/16 04:50:19;;;;;;;54.17;27.27;;;;;;;;;;6215395;28;20108;-62
2021/12/16 04:53:20;;;;;;;59.92;29.38;;;;;;;;;;6217114;28;20136;-62
2021/12/16 04:56:22;;;;;;;56.40;29.00;;;;;;;;;;6215697;28;20053;-61
2021/12/16 04:59:24;;;;;;;60.20;29.60;;;;;;;;;;6201884;28;20510;-62
2021/12/16 05:02:26;;;;;;;61.13;31.27;;;;;;;;;;6199796;28;20478;-62
2021/12/16 05:05:26;;;;;;;57.42;29.80;;;;;;;;;;6204557;28;20101;-61
2021/12/16 05:08:28;;;;;;;60.47;29.95;;;;;;;;;;6203666;28;20125;-62
2021/12/16 05:11:29;;;;;;;57.20;28.60;;;;;;;;;;6216325;28;20054;-63
2021/12/16 05:14:30;;;;;;;52.63;27.50;;;;;;;;;;6215217;28;20042;-61
2021/12/16 05:17:37;;;;;;;56.00;27.95;;;;;;;;;;6213087;28;20145;-62
2021/12/16 05:20:42;;;;;;;54.40;28.63;;;;;;;;;;6215297;28;20485;-63
2021/12/16 05:27:06;;;;;;;65.10;31.23;;;;;;;;;;6210195;28;20485;-62
2021/12/16 05:30:08;;;;;;;59.03;32.95;;;;;;;;;;6215155;28;20446;-63
2021/12/16 05:33:09;;;;;;;57.45;29.35;;;;;;;;;;6220618;28;20046;-61
2021/12/16 05:36:11;;;;;;;53.20;26.85;;;;;;;;;;6210263;28;20049;-61
2021/12/16 05:39:13;;;;;;;55.60;28.15;;;;;;;;;;6214756;28;20084;-63
2021/12/16 05:42:13;;;;;;;;;;;;;;;;;;6218702;28;20793;-62
2021/12/16 05:45:14;;;;;;;50.85;26.25;;;;;;;;;;6207078;28;19932;-62
2021/12/16 05:48:18;;;;;;;57.55;27.25;;;;;;;;;;6201057;28;20100;-62
2021/12/16 05:51:25;;;;;;;56.10;25.85;;;;;;;;;;6204466;28;20045;-63
2021/12/16 05:54:26;;;;;;;62.80;34.80;;;;;;;;;;6208565;28;20524;-63
2021/12/16 05:57:27;;;;;;;59.13;30.45;;;;;;;;;;6211695;28;20042;-64
2021/12/16 06:00:31;;;;;;;59.78;31.67;;;;;;;;;;6211435;28;20042;-63
2021/12/16 06:03:33;;;;;;;59.50;29.77;;;;;;;;;;6211487;28;20065;-63
2021/12/16 06:06:34;;;;;;;58.03;29.08;;;;;;;;;;6205467;28;20066;-63
2021/12/16 06:09:35;;;;;;;55.00;27.27;;;;;;;;;;6199736;28;20042;-63
2021/12/16 06:12:36;;;;;;;56.45;27.75;;;;;;;;;;6206828;28;20077;-62
2021/12/16 06:28:47;;;;;;;58.25;30.40;;;;;;;;;;6209161;28;20049;-62
2021/12/16 06:31:48;;;;;;;56.35;30.63;;;;;;;;;;6208549;28;20065;-62
2021/12/16 06:34:49;;;;;;;57.58;28.83;;;;;;;;;;6208654;28;20042;-62
2021/12/16 06:37:50;;;;;;;57.67;30.05;;;;;;;;;;6208438;28;20578;-63
2021/12/16 06:40:52;;;;;;;59.78;30.02;;;;;;;;;;6206850;28;20047;-64
2021/12/16 06:43:55;;;;;;;60.38;29.70;;;;;;;;;;6207744;28;20066;-62
2021/12/16 06:47:02;;;;;;;;;;;;;;;;;;6213185;28;20049;-65
2021/12/16 06:50:04;;;;;;;61.67;31.33;;;;;;;;;;6211120;28;19971;-64
2021/12/16 06:53:07;;;;;;;60.03;31.30;;;;;;;;;;6206685;28;20054;-64
2021/12/16 06:56:15;;;;;;;59.15;30.45;;;;;;;;;;6209096;28;20046;-62
2021/12/16 06:59:27;;;;;;;59.70;30.15;;;;;;;;;;6208183;28;20049;-62
2021/12/16 07:05:44;;;;;;;64.32;32.20;;;;;;;;;;6202625;28;20064;-62
2021/12/16 07:08:47;;;;;;;62.65;30.42;;;;;;;;;;6207991;28;20084;-63
2021/12/16 07:11:51;;;;;;;;;;;;;;;;;;6209511;28;20054;-65
2021/12/16 07:14:52;;;;;;;61.88;31.50;;;;;;;;;;6206092;28;20472;-62
2021/12/16 07:17:54;;;;;;;63.63;32.72;;;;;;;;;;6202290;28;20058;-62
2021/12/16 07:20:55;;;;;;;;;;;;;;;;;;6209733;28;20096;-63
2021/12/16 07:23:55;;;;;;;69.85;34.53;;;;;;;;;;6210372;28;19933;-64
2021/12/16 07:26:56;;;;;;;80.35;35.50;;;;;;;;;;6200553;28;20792;-63
2021/12/16 07:29:57;;;;;;;76.57;35.78;;;;;;;;;;6208897;28;20050;-62
2021/12/16 07:32:57;;;;;;;67.97;34.17;;;;;;;;;;6211575;28;20604;-64
2021/12/16 07:36:00;;;;;;;71.28;34.42;;;;;;;;;;6216022;28;20046;-62
2021/12/16 07:39:04;;;;;;;70.35;36.30;;;;;;;;;;6209867;28;20049;-64
2021/12/16 07:42:08;;;;;;;64.68;32.45;;;;;;;;;;6205374;28;20436;-62
2021/12/16 07:45:10;;;;;;;66.10;34.40;;;;;;;;;;6207356;28;20077;-63
2021/12/16 07:48:15;;;;;;;69.18;32.72;;;;;;;;;;6203442;28;20050;-64
2021/12/16 07:51:17;;;;;;;74.30;36.85;;;;;;;;;;6206667;28;20141;-61
2021/12/16 07:54:20;;;;;;;73.75;35.97;;;;;;;;;;6210215;28;20046;-61
2021/12/16 07:57:20;;;;;;;70.50;32.75;;;;;;;;;;6216465;28;20074;-62
2021/12/16 08:00:25;;;;;;;67.88;33.85;;;;;;;;;;6218533;28;20520;-62
2021/12/16 08:03:27;;;;;;;69.97;34.63;;;;;;;;;;6215033;28;20103;-63
2021/12/16 08:06:29;;;;;;;69.38;36.55;;;;;;;;;;6211395;28;20563;-62
2021/12/16 08:09:30;;;;;;;;;;;;;;;;;;6200227;28;20066;-64
2021/12/16 08:12:33;;;;;;;72.57;34.38;;;;;;;;;;6214293;28;19921;-62
2021/12/16 08:15:34;;;;;;;75.03;35.75;;;;;;;;;;6209339;28;20053;-62
2021/12/16 08:18:35;;;;;;;71.68;35.85;;;;;;;;;;6203291;28;20112;-64
2021/12/16 08:21:38;;;;;;;70.88;34.58;;;;;;;;;;6205000;28;20065;-63
2021/12/16 08:24:38;;;;;;;75.22;34.38;;;;;;;;;;6202330;28;20569;-64
2021/12/16 08:27:39;;;;;;;68.68;33.90;;;;;;;;;;6205470;28;20050;-65
2021/12/16 08:30:44;;;;;;;75.15;34.15;;;;;;;;;;6207427;28;20048;-64
2021/12/16 08:33:47;;;;;;;70.32;34.35;;;;;;;;;;6214146;28;20053;-64
2021/12/16 08:36:48;;;;;;;69.83;35.87;;;;;;;;;;6216614;28;20038;-63
2021/12/16 08:39:48;;;;;;;70.82;35.60;;;;;;;;;;6212802;28;20046;-62
2021/12/16 08:42:52;;;;;;;68.55;34.33;;;;;;;;;;6199584;28;20073;-63
2021/12/16 08:45:54;;;;;;;72.85;35.13;;;;;;;;;;6204959;28;20125;-62
2021/12/16 08:48:55;;;;;;;68.30;33.75;;;;;;;;;;6205875;28;20076;-62
2021/12/16 08:51:59;;;;;;;68.93;34.78;;;;;;;;;;6205206;28;20042;-61
2021/12/16 08:55:00;;;;;;;68.80;33.80;;;;;;;;;;6201939;28;20571;-64
2021/12/16 08:58:03;;;;;;;63.05;32.92;;;;;;;;;;6204599;28;20081;-61
2021/12/16 09:01:09;;;;;;;62.38;30.98;;;;;;;;;;6207517;28;20174;-62
2021/12/16 09:04:10;;;;;;;65.15;32.25;;;;;;;;;;6203882;28;20057;-64
2021/12/16 09:07:14;;;;;;;59.65;30.95;;;;;;;;;;6213458;28;20141;-62
2021/12/16 09:10:21;;;;;;;57.75;28.70;;;;;;;;;;6214980;28;20144;-64
2021/12/16 09:13:23;;;;;;;60.90;29.20;;;;;;;;;;6215782;28;20397;-62
2021/12/16 09:16:26;;;;;;;60.17;29.57;;;;;;;;;;6215839;28;20520;-61
2021/12/16 09:19:27;;;;;;;55.67;28.60;;;;;;;;;;6210738;28;20049;-62
2021/12/16 09:22:28;;;;;;;53.35;28.15;;;;;;;;;;6217789;28;20081;-64
2021/12/16 09:25:29;;;;;;;58.22;31.25;;;;;;;;;;6217802;28;20049;-62
2021/12/16 09:28:30;;;;;;;59.63;29.23;;;;;;;;;;6215419;28;20698;-62
2021/12/16 09:31:31;;;;;;;55.28;29.20;;;;;;;;;;6211047;28;20050;-62
2021/12/16 09:34:32;;;;;;;50.58;27.20;;;;;;;;;;6204808;28;20918;-61
2021/12/16 09:37:33;;;;;;;55.78;28.05;;;;;;;;;;6205903;28;20048;-64
2021/12/16 09:40:36;;;;;;;53.15;28.65;;;;;;;;;;6206769;28;20573;-62
2021/12/16 09:43:44;;;;;;;54.58;27.58;;;;;;;;;;6203396;28;20069;-61
2021/12/16 09:46:48;;;;;;;59.70;29.23;;;;;;;;;;6200948;28;20047;-62
2021/12/16 09:49:49;;;;;;;56.50;30.80;;;;;;;;;;6202995;28;20129;-62
2021/12/16 09:52:50;;;;;;;63.03;30.70;;;;;;;;;;6203623;28;20472;-60
2021/12/16 09:55:59;;;;;;;66.15;31.88;;;;;;;;;;6201302;28;20580;-63
2021/12/16 09:59:03;;;;;;;63.33;33.10;;;;;;;;;;6203658;28;20119;-65
2021/12/16 10:02:08;;;;;;;72.32;35.20;;;;;;;;;;6197943;28;20077;-65
2021/12/16 10:05:10;;;;;;;66.40;34.78;;;;;;;;;;6208594;28;20046;-63
2021/12/16 10:08:10;;;;;;;75.25;36.90;;;;;;;;;;6207343;28;20509;-61
2021/12/16 10:11:11;;;;;;;69.40;35.85;;;;;;;;;;6204092;28;20490;-62
2021/12/16 10:17:24;;;;;;;70.13;35.33;;;;;;;;;;6207652;28;20100;-62
2021/12/16 10:20:33;;;;;;;69.75;35.42;;;;;;;;;;6205918;28;20042;-61
2021/12/16 10:23:39;;;;;;;69.00;33.00;;;;;;;;;;6207906;28;20057;-60
2021/12/16 10:26:39;;;;;;;65.13;32.65;;;;;;;;;;6209160;28;20595;-63
2021/12/16 10:29:54;;;;;;;60.45;32.05;;;;;;;;;;6211532;28;20050;-60
2021/12/16 10:32:55;;;;;;;63.65;32.53;;;;;;;;;;6215179;28;20501;-61
2021/12/16 10:36:36;;;;;;;56.65;29.48;;;;;;;;;;6217608;28;20053;-60
2021/12/16 10:39:37;;;;;;;56.28;27.80;;;;;;;;;;6215239;28;20588;-62
2021/12/16 10:42:47;;;;;;;52.80;27.50;;;;;;;;;;6210465;28;20045;-62
2021/12/16 10:45:58;;;;;;;48.70;24.52;;;;;;;;;;6206446;28;20164;-61
2021/12/16 10:49:04;;;;;;;54.63;26.05;;;;;;;;;;6208151;28;20137;-61
2021/12/16 10:52:11;;;;;;;49.97;27.35;;;;;;;;;;6201865;28;20054;-60
2021/12/16 10:55:11;;;;;;;51.47;25.92;;;;;;;;;;6207343;28;20042;-60
2021/12/16 10:58:12;;;;;;;45.30;23.40;;;;;;;;;;6208968;28;20058;-62
2021/12/16 11:01:51;;;;;;;46.90;24.73;;;;;;;;;;6206937;28;20046;-63
2021/12/16 11:05:00;;;;;;;43.92;22.30;;;;;;;;;;6214790;28;20041;-63
2021/12/16 11:08:01;;;;;;;40.28;21.70;;;;;;;;;;6201749;28;20098;-63
2021/12/16 11:11:11;;;;;;;42.05;21.83;;;;;;;;;;6208178;28;20049;-64
2021/12/16 11:14:12;;;;;;;42.42;22.00;;;;;;;;;;6205081;28;20149;-62
2021/12/16 11:17:15;;;;;;;39.92;20.75;;;;;;;;;;6205757;28;20402;-61
2021/12/16 11:20:22;;;;;;;44.67;22.95;;;;;;;;;;6207012;28;20145;-61
2021/12/16 11:23:34;;;;;;;41.53;20.92;;;;;;;;;;6208576;28;20282;-62
2021/12/16 11:26:38;;;;;;;50.38;24.35;;;;;;;;;;6204219;28;20117;-63
2021/12/16 11:29:39;;;;;;;46.60;24.90;;;;;;;;;;6201414;28;20050;-64
2021/12/16 11:32:43;;;;;;;44.42;22.45;;;;;;;;;;6210904;28;20422;-63
2021/12/16 11:35:47;;;;;;;45.22;22.50;;;;;;;;;;6213699;28;20103;-61
2021/12/16 11:38:52;;;;;;;41.67;22.17;;;;;;;;;;6203114;28;20137;-61
2021/12/16 11:42:01;;;;;;;43.50;22.08;;;;;;;;;;6203290;28;20160;-63
2021/12/16 11:45:03;;;;;;;44.42;22.73;;;;;;;;;;6204482;28;20527;-63
2021/12/16 11:48:06;;;;;;;45.00;21.90;;;;;;;;;;6200905;28;20469;-64
2021/12/16 11:51:17;;;;;;;44.75;22.80;;;;;;;;;;6201033;28;20074;-61
2021/12/16 11:54:25;;;;;;;45.20;21.67;;;;;;;;;;6203613;28;20066;-64
2021/12/16 11:57:34;;;;;;;45.40;22.45;;;;;;;;;;6198726;28;20054;-63
2021/12/16 12:00:38;;;;;;;44.15;23.52;;;;;;;;;;6202364;28;20077;-61
2021/12/16 12:03:39;;;;;;;41.20;21.55;;;;;;;;;;6206580;28;20058;-62
2021/12/16 12:06:44;;;;;;;46.08;23.35;;;;;;;;;;6204800;28;20150;-63
2021/12/16 12:09:52;;;;;;;44.25;23.00;;;;;;;;;;6207496;28;20077;-61
2021/12/16 12:12:59;;;;;;;42.85;21.50;;;;;;;;;;6196006;28;20138;-61
2021/12/16 12:16:05;;;;;;;39.45;20.48;;;;;;;;;;6201517;28;20076;-62
2021/12/16 12:19:22;;;;;;;43.40;20.63;;;;;;;;;;6200897;28;20155;-61
2021/12/16 12:22:25;;;;;;;39.97;20.95;;;;;;;;;;6216142;28;20046;-63
2021/12/16 12:25:26;;;;;;;39.83;20.13;;;;;;;;;;6209026;28;20046;-61
2021/12/16 12:28:27;;;;;;;40.25;20.95;;;;;;;;;;6209357;28;20046;-61
2021/12/16 12:31:32;;;;;;;38.60;20.40;;;;;;;;;;6205496;28;20184;-62
2021/12/16 12:34:35;;;;;;;40.72;19.90;;;;;;;;;;6207586;28;20168;-62
2021/12/16 12:37:41;;;;;;;38.35;20.90;;;;;;;;;;6200185;28;20034;-64
2021/12/16 12:40:42;;;;;;;37.42;19.48;;;;;;;;;;6201114;28;20173;-61
2021/12/16 12:43:43;;;;;;;39.70;20.67;;;;;;;;;;6205461;28;20042;-61
2021/12/16 12:46:44;;;;;;;38.08;19.20;;;;;;;;;;6205347;28;20813;-63
2021/12/16 12:49:46;;;;;;;42.23;19.73;;;;;;;;;;6205266;28;20087;-62
2021/12/16 12:52:50;;;;;;;44.25;20.25;;;;;;;;;;6207937;28;20339;-63
2021/12/16 12:55:56;;;;;;;38.33;19.63;;;;;;;;;;6202603;28;20079;-61
2021/12/16 12:59:03;;;;;;;39.92;19.63;;;;;;;;;;6214959;28;20072;-62
2021/12/16 13:02:19;;;;;;;38.53;19.90;;;;;;;;;;6199096;28;20089;-61
2021/12/16 13:05:21;;;;;;;34.70;17.45;;;;;;;;;;6204000;28;20208;-62
2021/12/16 13:08:30;;;;;;;37.47;20.40;;;;;;;;;;6202110;28;20050;-61
2021/12/16 13:11:30;;;;;;;39.45;18.40;;;;;;;;;;6205293;28;20493;-62
2021/12/16 13:14:47;;;;;;;35.28;18.05;;;;;;;;;;6215391;28;20107;-63
2021/12/16 13:24:53;;;;;;;31.40;17.30;;;;;;;;;;6210781;28;20145;-61
2021/12/16 13:28:01;;;;;;;35.50;18.70;;;;;;;;;;6217358;28;20413;-63
2021/12/16 13:31:07;;;;;;;32.60;17.30;;;;;;;;;;6203243;28;20103;-67
2021/12/16 13:34:33;;;;;;;28.55;16.02;;;;;;;;;;6207143;28;20046;-61
2021/12/16 13:37:40;;;;;;;28.98;16.80;;;;;;;;;;6198647;28;20046;-61
2021/12/16 13:40:43;;;;;;;30.50;15.57;;;;;;;;;;6204333;28;20058;-62
2021/12/16 13:44:03;;;;;;;31.02;15.45;;;;;;;;;;6212020;28;20060;-62
2021/12/16 13:47:21;;;;;;;27.92;14.25;;;;;;;;;;6206364;28;20101;-60
2021/12/16 14:07:27;;;;;;;28.30;15.43;;;;;;;;;;6205535;28;20561;-62
2021/12/16 14:17:14;;;;;;;36.42;16.50;;;;;;;;;;6205416;28;20046;-61
2021/12/16 14:24:29;;;;;;;30.20;14.73;;;;;;;;;;6205842;28;19937;-61
2021/12/16 14:31:08;;;;;;;29.02;15.02;;;;;;;;;;6199576;28;20518;-61
2021/12/16 14:31:11;;;;;;;29.00;16.15;;;;;;;;;;6201262;28;20129;-63
2021/12/16 14:40:51;;;;;;;31.25;16.13;;;;;;;;;;6215057;28;20539;-61
2021/12/16 14:44:18;;;;;;;30.67;15.23;;;;;;;;;;6215706;28;20037;-62
2021/12/16 14:50:31;;;;;;;34.20;17.10;;;;;;;;;;6211915;28;20046;-60
2021/12/16 14:53:36;;;;;;;33.92;16.05;;;;;;;;;;6203880;28;20537;-61
2021/12/16 14:56:39;;;;;;;30.63;15.98;;;;;;;;;;6204927;28;20096;-62
2021/12/16 14:59:39;;;;;;;30.73;14.93;;;;;;;;;;6202586;28;20045;-62
2021/12/16 15:02:43;;;;;;;33.00;16.30;;;;;;;;;;6209365;28;20061;-61
2021/12/16 15:06:17;;;;;;;29.50;15.93;;;;;;;;;;6201507;28;20088;-60
2021/12/16 15:09:26;;;;;;;28.77;15.30;;;;;;;;;;6202752;28;20052;-60
2021/12/16 15:12:39;;;;;;;27.67;14.05;;;;;;;;;;6208882;28;20077;-61
2021/12/16 15:16:04;;;;;;;24.52;13.70;;;;;;;;;;6220910;28;20045;-61
2021/12/16 15:42:55;;;;;;;24.15;12.45;;;;;;;;;;6198589;28;20046;-61
2021/12/16 15:45:57;;;;;;;27.05;13.35;;;;;;;;;;6206363;28;20050;-62
2021/12/16 15:48:58;;;;;;;22.83;12.47;;;;;;;;;;6203046;28;20054;-62
2021/12/16 15:52:00;;;;;;;23.50;12.23;;;;;;;;;;6199763;28;20173;-62
2021/12/16 15:55:02;;;;;;;22.17;11.85;;;;;;;;;;6203619;28;20049;-62
2021/12/16 15:58:05;;;;;;;22.98;12.80;;;;;;;;;;6203347;28;20050;-61
2021/12/16 16:01:14;;;;;;;23.33;11.70;;;;;;;;;;6207119;28;20073;-61
2021/12/16 16:04:19;;;;;;;23.92;11.85;;;;;;;;;;6206821;28;20057;-62
2021/12/16 16:07:20;;;;;;;23.13;11.88;;;;;;;;;;6206212;28;20113;-62
2021/12/16 16:10:21;;;;;;;18.92;10.32;;;;;;;;;;6199860;28;20542;-62
2021/12/16 16:13:25;;;;;;;19.25;10.38;;;;;;;;;;6204359;28;20066;-61
2021/12/16 16:16:33;;;;;;;23.25;12.55;;;;;;;;;;6206203;28;20531;-62
2021/12/16 16:19:37;;;;;;;21.80;12.18;;;;;;;;;;6204844;28;20100;-62
2021/12/16 16:22:38;;;;;;;21.90;12.13;;;;;;;;;;6204366;28;20052;-63
2021/12/16 16:25:40;;;;;;;22.55;11.82;;;;;;;;;;6205391;28;20992;-62
2021/12/16 16:28:44;;;;;;;21.05;11.27;;;;;;;;;;6203927;28;20038;-62
2021/12/16 16:31:46;;;;;;;24.08;12.13;;;;;;;;;;6203240;28;20200;-62
2021/12/16 16:34:50;;;;;;;22.42;12.45;;;;;;;;;;6207470;28;20635;-62
2021/12/16 16:37:51;;;;;;;20.10;11.05;;;;;;;;;;6201979;28;20091;-63
2021/12/16 16:40:54;;;;;;;16.88;9.82;;;;;;;;;;6202178;28;20038;-63
2021/12/16 16:44:03;;;;;;;16.02;9.40;;;;;;;;;;6196684;28;20075;-62
2021/12/16 16:47:11;;;;;;;18.42;10.23;;;;;;;;;;6206109;28;20050;-62
2021/12/16 16:50:13;;;;;;;20.00;11.48;;;;;;;;;;6205690;28;20047;-63
2021/12/16 16:53:14;;;;;;;18.33;10.70;;;;;;;;;;6203452;28;20046;-61
2021/12/16 16:56:15;;;;;;;18.73;10.75;;;;;;;;;;6198675;28;20497;-63
2021/12/16 16:59:26;;;;;;;17.88;10.10;;;;;;;;;;6206676;28;20041;-62
2021/12/16 17:02:33;;;;;;;18.88;9.93;;;;;;;;;;6201540;28;20141;-59
2021/12/16 17:05:39;;;;;;;15.63;9.32;;;;;;;;;;6203876;28;20104;-62
2021/12/16 17:08:40;;;;;;;15.82;8.77;;;;;;;;;;6208108;28;20141;-62
2021/12/16 17:11:44;;;;;;;11.23;6.65;;;;;;;;;;6205329;28;20552;-62
2021/12/16 17:14:54;;;;;;;12.32;7.30;;;;;;;;;;6200998;28;20062;-62
2021/12/16 17:17:55;;;;;;;12.30;7.00;;;;;;;;;;6203313;28;20053;-63
2021/12/16 17:21:01;;;;;;;18.25;8.90;;;;;;;;;;6205076;28;20054;-63
2021/12/16 17:24:12;;;;;;;13.85;8.25;;;;;;;;;;6210110;28;20050;-63
2021/12/16 17:27:19;;;;;;;16.92;8.70;;;;;;;;;;6217552;28;20050;-62
2021/12/16 17:30:24;;;;;;;14.50;8.30;;;;;;;;;;6209563;28;20065;-62
2021/12/16 17:33:29;;;;;;;17.10;9.30;;;;;;;;;;6207896;28;20152;-63
2021/12/16 17:36:31;;;;;;;16.95;9.95;;;;;;;;;;6209050;28;20050;-61
2021/12/16 17:39:48;;;;;;;18.35;9.27;;;;;;;;;;6208921;28;20104;-63
2021/12/16 17:42:56;;;;;;;19.08;10.32;;;;;;;;;;6201699;28;20053;-60
2021/12/16 17:46:02;;;;;;;17.65;10.27;;;;;;;;;;6201621;28;20133;-61
2021/12/16 17:49:06;;;;;;;19.27;11.45;;;;;;;;;;6200748;28;20056;-63
2021/12/16 17:52:15;;;;;;;17.92;10.02;;;;;;;;;;6197762;28;20157;-63
2021/12/16 17:55:20;;;;;;;17.67;10.27;;;;;;;;;;6201131;28;20050;-62
2021/12/16 17:58:29;;;;;;;15.45;8.70;;;;;;;;;;6201987;28;20042;-62
2021/12/16 18:01:34;;;;;;;13.90;7.95;;;;;;;;;;6202785;28;20416;-64
2021/12/16 18:04:38;;;;;;;13.95;7.25;;;;;;;;;;6203848;28;20416;-63
2021/12/16 18:07:40;;;;;;;14.23;6.72;;;;;;;;;;6201228;28;20054;-64
2021/12/16 18:10:41;;;;;;;11.88;6.90;;;;;;;;;;6198965;28;20054;-61
2021/12/16 18:13:46;;;;;;;12.75;7.05;;;;;;;;;;6196302;28;20125;-59
2021/12/16 18:16:54;;;;;;;16.02;7.68;;;;;;;;;;6201587;28;20409;-62
2021/12/16 18:20:04;;;;;;;11.85;6.82;;;;;;;;;;6205600;28;20394;-62
2021/12/16 18:23:10;;;;;;;15.65;7.80;;;;;;;;;;6204475;28;20152;-63
2021/12/16 18:26:11;;;;;;;16.52;8.48;;;;;;;;;;6204334;28;20046;-63
2021/12/16 18:29:13;;;;;;;16.60;8.70;;;;;;;;;;6199397;28;20046;-61
2021/12/16 18:32:13;;;;;;;18.52;9.13;;;;;;;;;;6209015;28;20070;-63
2021/12/16 18:35:17;;;;;;;17.38;9.50;;;;;;;;;;6204400;28;20057;-63
2021/12/16 18:38:22;;;;;;;19.45;10.43;;;;;;;;;;6204176;28;20144;-64
2021/12/16 18:41:31;;;;;;;22.98;10.93;;;;;;;;;;6204404;28;20469;-63
2021/12/16 18:44:36;;;;;;;19.85;10.43;;;;;;;;;;6204943;28;20043;-61
2021/12/16 18:47:58;;;;;;;14.55;7.55;;;;;;;;;;6205338;28;20046;-63
2021/12/16 18:54:29;;;;;;;14.77;7.63;;;;;;;;;;6208011;28;20094;-62
2021/12/16 18:57:29;;;;;;;13.55;6.55;;;;;;;;;;6197219;28;20073;-62
2021/12/16 19:00:31;;;;;;;12.85;6.97;;;;;;;;;;6202617;28;20045;-60
2021/12/16 19:03:31;;;;;;;15.25;7.30;;;;;;;;;;6203801;28;20048;-61
2021/12/16 19:06:36;;;;;;;15.10;7.85;;;;;;;;;;6202798;28;20089;-61
2021/12/16 19:09:38;;;;;;;14.88;7.70;;;;;;;;;;6201062;28;20050;-63
2021/12/16 19:12:39;;;;;;;14.77;7.95;;;;;;;;;;6200191;28;20049;-61
2021/12/16 19:15:40;;;;;;;16.40;8.50;;;;;;;;;;6200397;28;20057;-60
2021/12/16 19:18:44;;;;;;;19.23;10.50;;;;;;;;;;6198981;28;20054;-60
2021/12/16 19:21:45;;;;;;;23.95;10.73;;;;;;;;;;6200626;28;20518;-62
2021/12/16 19:24:46;;;;;;;29.45;12.30;;;;;;;;;;6200267;28;20065;-62
2021/12/16 19:27:47;;;;;;;24.02;11.75;;;;;;;;;;6204847;28;20038;-62
2021/12/16 19:30:51;;;;;;;20.48;9.65;;;;;;;;;;6209666;28;20405;-61
2021/12/16 19:33:55;;;;;;;18.48;10.30;;;;;;;;;;6206794;28;20129;-62
2021/12/16 19:36:56;;;;;;;23.52;11.68;;;;;;;;;;6208496;28;20056;-62
2021/12/16 19:39:58;;;;;;;23.55;12.63;;;;;;;;;;6206223;28;20061;-62
2021/12/16 19:43:03;;;;;;;25.63;12.18;;;;;;;;;;6204627;28;20089;-61
2021/12/16 19:46:05;;;;;;;20.92;11.93;;;;;;;;;;6206187;28;20054;-61
2021/12/16 19:49:08;;;;;;;;;;;;;;;;;;6207849;28;20072;-63
2021/12/16 19:52:09;;;;;;;32.75;14.75;;;;;;;;;;6205024;28;19971;-61
2021/12/16 19:55:11;;;;;;;32.65;16.10;;;;;;;;;;6204623;28;20050;-63
2021/12/16 19:58:13;;;;;;;25.20;13.07;;;;;;;;;;6198535;28;20093;-60
2021/12/16 20:01:21;;;;;;;22.40;11.07;;;;;;;;;;6204087;28;20057;-61
2021/12/16 20:04:29;;;;;;;21.15;10.18;;;;;;;;;;6201255;28;20529;-61
2021/12/16 20:07:30;;;;;;;21.50;9.60;;;;;;;;;;6203452;28;20056;-61
2021/12/16 20:10:36;;;;;;;19.48;9.90;;;;;;;;;;6203162;28;20046;-61
2021/12/16 20:13:38;;;;;;;15.77;8.02;;;;;;;;;;6205077;28;20062;-61
2021/12/16 20:16:46;;;;;;;14.85;8.15;;;;;;;;;;6203984;28;20061;-60
2021/12/16 20:19:52;;;;;;;14.80;8.50;;;;;;;;;;6204757;28;20493;-60
2021/12/16 20:22:53;;;;;;;17.25;9.52;;;;;;;;;;6204138;28;20054;-60
2021/12/16 20:25:58;;;;;;;21.90;10.07;;;;;;;;;;6202653;28;20069;-60
2021/12/16 20:29:02;;;;;;;20.70;10.55;;;;;;;;;;6200231;28;20060;-61
2021/12/16 20:32:10;;;;;;;18.58;10.10;;;;;;;;;;6202948;28;20057;-61
2021/12/16 20:35:23;;;;;;;16.77;9.45;;;;;;;;;;6207289;28;20073;-62
2021/12/16 20:38:29;;;;;;;16.67;9.38;;;;;;;;;;6204759;28;20052;-61
2021/12/16 20:41:34;;;;;;;17.73;8.20;;;;;;;;;;6208736;28;20046;-63
2021/12/16 20:44:37;;;;;;;15.73;8.65;;;;;;;;;;6203585;28;20069;-61
2021/12/16 20:47:39;;;;;;;14.93;7.57;;;;;;;;;;6197000;28;20053;-62
2021/12/16 20:50:41;;;;;;;15.02;7.78;;;;;;;;;;6201677;28;20076;-60
2021/12/16 20:53:41;;;;;;;16.17;7.75;;;;;;;;;;6200512;28;20140;-61
2021/12/16 20:56:42;;;;;;;17.92;8.93;;;;;;;;;;6198834;28;20448;-62
2021/12/16 20:59:44;;;;;;;18.55;8.40;;;;;;;;;;6199435;28;20111;-61
2021/12/16 21:02:45;;;;;;;14.98;7.75;;;;;;;;;;6200080;28;22404;-61
2021/12/16 21:05:51;;;;;;;15.90;7.40;;;;;;;;;;6201160;28;20061;-62
2021/12/16 21:08:52;;;;;;;13.68;6.78;;;;;;;;;;6197139;28;20042;-62
2021/12/16 21:11:53;;;;;;;13.15;6.43;;;;;;;;;;6200240;28;20063;-62
2021/12/16 21:14:54;;;;;;;14.45;6.78;;;;;;;;;;6203520;28;20057;-63
2021/12/16 21:17:57;;;;;;;16.95;7.25;;;;;;;;;;6204422;28;20054;-62
2021/12/16 21:20:59;;;;;;;15.85;7.95;;;;;;;;;;6204263;28;20145;-62
2021/12/16 21:23:59;;;;;;;14.48;6.90;;;;;;;;;;6203288;28;20050;-62
2021/12/16 21:27:02;;;;;;;13.68;6.32;;;;;;;;;;6204932;28;20057;-62
2021/12/16 21:30:06;;;;;;;12.52;6.45;;;;;;;;;;6203705;28;20039;-62
2021/12/16 21:33:07;;;;;;;15.77;6.65;;;;;;;;;;6203899;28;20089;-62
2021/12/16 21:36:13;;;;;;;14.38;6.70;;;;;;;;;;6204358;28;20085;-63
2021/12/16 21:39:18;;;;;;;14.73;6.50;;;;;;;;;;6203615;28;20508;-63
2021/12/16 21:42:27;;;;;;;14.90;6.75;;;;;;;;;;6202815;28;20113;-61
2021/12/16 21:45:28;;;;;;;13.52;5.85;;;;;;;;;;6203212;28;20486;-62